American Falls, ID

7:38 PM MDT on September 02, 2014 (GMT -0600)
ITD Coldwater ID US | Change Station
CLOSE
Current Station
Personal Weather Station
Location: American Falls, ID
Elevation: 4298 ft
Nearby Weather Stations
Active Advisory: Lake Wind Advisory

Elev 4298 ft 42.61 °N, 113.15 °W | Updated 53 minutes ago

Clear
Clear
81 °F
Feels Like 79 °F
N
4
Wind Variable Wind from NNW
Gusts 6.0 mph

Today
High -- | Low -- °F
--% Chance of Precip.
Yesterday
High -- | Low -- °F
Precip. -- in
6:57 AM 8:04 PM
First Quarter, 57% visible
Pressure 29.78 in
Visibility 10.0 miles
Clouds Clear
Heat Index 79 °F
Dew Point 39 °F
Humidity 22%
Rainfall 0.00 in
Snow Depth Not available.
UV 1 out of 12
Pollen 8.10 out of 12
PM2.5 Good
Flu Activity Not available.
METAR KPIH 030053Z 24008KT 10SM CLR 27/01 A2987 RMK AO2 SLP082 T02670006

More Conditions Fewer Conditions

Pressure 29.78 in
Visibility 10.0 miles
Clouds Clear
Heat Index 79 °F
Dew Point 39 °F
Humidity 22%
Rainfall 0.00 in
Snow Depth Not available.
UV 1 out of 12
Pollen 8.10 out of 12
PM2.5 Good
Flu Activity Not available.
METAR KPIH 030053Z 24008KT 10SM CLR 27/01 A2987 RMK AO2 SLP082 T02670006

More Conditions Fewer Conditions

10-Day Weather Forecast

Almanac

Astronomy

Sep. 02, 2014 Rise Set
Actual Time 6:57 AM MDT 8:04 PM MDT
Civil Twilight 6:28 AM MDT 8:33 PM MDT
Nautical Twilight 5:53 AM MDT 9:07 PM MDT
Astronomical Twilight 5:17 AM MDT 9:44 PM MDT
Moon 2:55 PM MDT (9/2) 12:00 AM MDT (9/2)
Length of Visible Light 14h 04m
Length of Day
13h 06m
Tomorrow will be 2m 48s shorter.
First Quarter, 57% of the Moon is Illuminated
Today
First Quarter
Sep 8
Full
Sep 15
Last Quarter
Sep 24
New
Oct 1
First Quarter

Today's Extremes

State Highs State Lows

Community

WunderPhotos

Upload Photos

1,749,829 photos uploaded!

Nearby

Air Quality

  Air Quality AQ Index Pollutant
Yesterday Good
PM10
Current Good
PM2.5
Tuesday Good
PM2.5
Wednesday Good
PM2.5

Snow Depth

Station Depth Elevation
Wildhorse Divide 0 in 6490 ft
Sheep Mountain 0 in 6570 ft
Magic Mountain 0 in 6880 ft
Somsen Ranch 0 in 6800 ft
Bear Canyon 0 in 7900 ft

Earthquake Activity

City Distance Mag. Time & Date
No recent earthquake activity has been reported nearby.
Minimum magnitude displayed is 2.5.

Coastal Water Temperatures

Place Temperature
No Stations Reporting

Nearby Weather Stations